Time;durP1;ratioP1;P1;durP2;ratioP2;P2;SDS_P1;SDS_P2;PMS_P1;PMS_P2;Temp;Humidity;BMP_temperature;BMP_pressure;BME280_temperature;BME280_humidity;BME280_pressure;Samples;Min_cycle;Max_cycle;Signal;HPM_P1;HPM_P2
2021/12/31 00:00:36;;;;;;;13.93;8.75;;;;;;;-144.19;100.00;76563.47;5093440;28;20490;-88
2021/12/31 00:03:02;;;;;;;14.20;9.65;;;;;;;-144.19;100.00;76573.31;5093156;28;20048;-87
2021/12/31 00:05:29;;;;;;;12.25;8.95;;;;;;;-144.19;100.00;76571.34;5075411;28;20040;-86
2021/12/31 00:07:55;;;;;;;11.98;9.07;;;;;;;-144.19;100.00;76567.41;5075340;28;20425;-86
2021/12/31 00:10:22;;;;;;;11.68;8.82;;;;;;;-144.19;100.00;76559.53;5075891;28;20398;-86
2021/12/31 00:12:49;;;;;;;11.48;8.13;;;;;;;-144.19;100.00;76571.34;5075097;28;20066;-86
2021/12/31 00:15:15;;;;;;;11.00;8.57;;;;;;;-144.19;100.00;76583.16;5076226;28;20044;-86
2021/12/31 00:17:42;;;;;;;9.77;7.97;;;;;;;-144.19;100.00;76575.28;5075320;28;20052;-85
2021/12/31 00:20:16;;;;;;;11.27;7.93;;;;;;;-144.19;100.00;76583.16;5092871;28;20062;-87
2021/12/31 00:25:15;;;;;;;9.05;7.68;;;;;;;-144.19;100.00;76587.09;5092610;28;20054;-84
2021/12/31 00:27:42;;;;;;;12.02;7.18;;;;;;;-144.19;100.00;76589.06;5092939;28;20048;-85
2021/12/31 00:30:09;;;;;;;10.90;6.97;;;;;;;-144.19;100.00;76579.22;5074885;28;20052;-87
2021/12/31 00:32:37;;;;;;;9.90;7.25;;;;;;;-144.19;100.00;76585.13;5074466;28;20071;-86
2021/12/31 00:35:05;;;;;;;11.45;7.25;;;;;;;-144.19;100.00;76591.03;5080554;28;20050;-89
2021/12/31 00:37:35;;;;;;;12.15;7.60;;;;;;;-144.19;100.00;76577.25;5113587;28;20050;-86
2021/12/31 00:40:05;;;;;;;11.43;7.32;;;;;;;-144.19;100.00;76569.38;5095484;28;20055;-85
2021/12/31 00:42:31;;;;;;;13.05;8.52;;;;;;;-144.19;100.00;76583.16;5106343;28;20382;-88
2021/12/31 00:44:58;;;;;;;9.55;7.32;;;;;;;-144.19;100.00;76585.13;5075143;28;20048;-85
2021/12/31 00:47:24;;;;;;;10.87;8.50;;;;;;;-144.19;100.00;76594.97;5075379;28;20044;-83
2021/12/31 00:49:52;;;;;;;9.52;7.00;;;;;;;-144.19;100.00;76600.88;5075547;28;20297;-86
2021/12/31 00:52:18;;;;;;;9.52;7.63;;;;;;;-144.19;100.00;76604.81;5073892;28;20064;-87
2021/12/31 00:54:45;;;;;;;12.10;8.33;;;;;;;-144.19;100.00;76614.66;5074531;28;20413;-86
2021/12/31 00:57:11;;;;;;;9.18;8.13;;;;;;;-144.19;100.00;76612.69;5074534;28;20286;-88
2021/12/31 00:59:38;;;;;;;11.05;8.63;;;;;;;-144.19;100.00;76622.53;5074256;28;20048;-84
2021/12/31 01:02:05;;;;;;;14.70;8.20;;;;;;;-144.19;100.00;76614.66;5073686;28;20067;-85
2021/12/31 01:04:33;;;;;;;11.85;8.55;;;;;;;-144.19;100.00;76622.53;5092464;28;20044;-85
2021/12/31 01:07:01;;;;;;;13.02;8.40;;;;;;;-144.19;100.00;76624.50;5074379;28;20147;-87
2021/12/31 01:09:29;;;;;;;11.45;9.00;;;;;;;-144.19;100.00;76626.47;5074069;28;20054;-87
2021/12/31 01:11:56;;;;;;;13.00;8.65;;;;;;;-144.19;100.00;76618.59;5091947;28;20054;-83
2021/12/31 01:14:30;;;;;;;12.90;8.82;;;;;;;-144.19;100.00;76622.53;5074189;28;20055;-86
2021/12/31 01:17:03;;;;;;;14.80;9.65;;;;;;;-144.19;100.00;76610.72;5073962;28;20059;-83
2021/12/31 01:19:45;;;;;;;11.30;9.13;;;;;;;-144.19;100.00;76606.78;5075403;28;20048;-87
2021/12/31 01:22:17;;;;;;;13.40;8.77;;;;;;;-144.19;100.00;76602.84;5087943;28;20044;-87
2021/12/31 01:24:44;;;;;;;12.50;9.18;;;;;;;-144.19;100.00;76591.03;5093926;28;20044;-85
2021/12/31 01:27:13;;;;;;;12.43;9.45;;;;;;;-144.19;100.00;76591.03;5074340;28;20039;-84
2021/12/31 01:29:39;;;;;;;14.00;9.13;;;;;;;-144.19;100.00;76587.09;5075728;28;20060;-82
2021/12/31 01:32:06;;;;;;;12.00;9.50;;;;;;;-144.19;100.00;76594.97;5073508;28;20052;-84
2021/12/31 01:34:32;;;;;;;15.17;8.67;;;;;;;-144.19;100.00;76587.09;5076291;28;20297;-87
2021/12/31 01:36:59;;;;;;;10.70;8.77;;;;;;;-144.19;100.00;76596.94;5110965;28;20289;-86
2021/12/31 01:39:26;;;;;;;10.43;8.25;;;;;;;-144.19;100.00;76585.13;5084643;28;20040;-85
2021/12/31 01:41:54;;;;;;;;;;;;;;;-144.19;100.00;76587.09;5092857;28;20040;-87
2021/12/31 01:44:23;;;;;;;11.63;8.93;;;;;;;-144.19;100.00;76581.19;5073907;28;19920;-88
2021/12/31 01:47:04;;;;;;;10.70;7.65;;;;;;;-144.19;100.00;76587.09;5073803;28;20109;-83
2021/12/31 01:49:37;;;;;;;10.40;7.93;;;;;;;-144.19;100.00;76579.22;5092135;28;20044;-87
2021/12/31 01:52:05;;;;;;;11.63;7.72;;;;;;;-144.19;100.00;76587.09;5073293;28;20458;-84
2021/12/31 01:54:33;;;;;;;9.57;7.32;;;;;;;-144.19;100.00;76587.09;5074493;28;20463;-84
2021/12/31 01:57:06;;;;;;;11.27;7.57;;;;;;;-144.19;100.00;76583.16;5073909;28;20052;-86
2021/12/31 01:59:36;;;;;;;9.95;7.28;;;;;;;-144.19;100.00;76581.19;5074037;28;20058;-88
2021/12/31 02:02:05;;;;;;;10.60;7.75;;;;;;;-144.19;100.00;76571.34;5073228;28;20497;-86
2021/12/31 02:04:33;;;;;;;10.88;7.75;;;;;;;-144.19;100.00;76583.16;5074019;28;20403;-83
2021/12/31 02:06:59;;;;;;;8.50;7.13;;;;;;;-144.19;100.00;76585.13;5073782;28;20056;-88
2021/12/31 02:09:27;;;;;;;13.85;7.80;;;;;;;-144.19;100.00;76585.13;5074080;28;20051;-87
2021/12/31 02:11:54;;;;;;;13.25;7.32;;;;;;;-144.19;100.00;76579.22;5092771;28;20130;-87
2021/12/31 02:14:21;;;;;;;11.25;6.90;;;;;;;-144.19;100.00;76587.09;5095429;28;20044;-88
2021/12/31 02:16:48;;;;;;;10.52;6.65;;;;;;;-144.19;100.00;76587.09;5095287;28;20047;-85
2021/12/31 02:19:17;;;;;;;9.47;6.90;;;;;;;-144.19;100.00;76591.03;5095403;28;20125;-87
2021/12/31 02:21:44;;;;;;;14.18;6.88;;;;;;;-144.19;100.00;76594.97;5077652;28;20059;-87
2021/12/31 02:24:13;;;;;;;12.23;7.63;;;;;;;-144.19;100.00;76587.09;5076992;28;20440;-86
2021/12/31 02:26:40;;;;;;;10.70;6.72;;;;;;;-144.19;100.00;76593.00;5095468;28;20130;-87
2021/12/31 02:29:06;;;;;;;10.82;6.70;;;;;;;-144.19;100.00;76606.78;5076671;28;20112;-84
2021/12/31 02:31:33;;;;;;;11.10;7.10;;;;;;;-144.19;100.00;76604.81;5094425;28;20058;-85
2021/12/31 02:33:59;;;;;;;10.77;7.43;;;;;;;-144.19;100.00;76598.91;5076665;28;20056;-85
2021/12/31 02:36:25;;;;;;;8.00;6.78;;;;;;;-144.19;100.00;76600.88;5112687;28;20044;-89
2021/12/31 02:38:52;;;;;;;8.37;6.70;;;;;;;-144.19;100.00;76594.97;5115402;28;20054;-87
2021/12/31 02:41:18;;;;;;;13.53;7.17;;;;;;;-144.19;100.00;76598.91;5084835;28;20059;-87
2021/12/31 02:43:45;;;;;;;11.13;7.30;;;;;;;-144.19;100.00;76600.88;5075592;28;20522;-85
2021/12/31 02:46:11;;;;;;;11.40;6.90;;;;;;;-144.19;100.00;76593.00;5076185;28;20052;-86
2021/12/31 02:48:38;;;;;;;9.67;6.53;;;;;;;-144.19;100.00;76591.03;5095180;28;20136;-86
2021/12/31 02:51:06;;;;;;;7.80;6.00;;;;;;;-144.19;100.00;76598.91;5076325;28;20283;-84
2021/12/31 02:53:39;;;;;;;11.27;6.30;;;;;;;-144.19;100.00;76585.13;5094565;28;20063;-86
2021/12/31 02:56:08;;;;;;;12.18;6.25;;;;;;;-144.19;100.00;76587.09;5076072;28;20497;-83
2021/12/31 02:58:35;;;;;;;10.98;7.00;;;;;;;-144.19;100.00;76583.16;5076311;28;20548;-86
2021/12/31 03:01:04;;;;;;;11.75;6.28;;;;;;;-144.19;100.00;76587.09;5076433;28;20059;-84
2021/12/31 03:03:32;;;;;;;11.23;6.00;;;;;;;-144.19;100.00;76579.22;5076324;28;20044;-85
2021/12/31 03:05:59;;;;;;;10.23;5.93;;;;;;;-144.19;100.00;76575.28;5094303;28;20228;-87
2021/12/31 03:08:30;;;;;;;10.43;5.75;;;;;;;-144.19;100.00;76575.28;5077157;28;20048;-85
2021/12/31 03:11:00;;;;;;;9.00;5.20;;;;;;;-144.19;100.00;76575.28;5094240;28;20048;-87
2021/12/31 03:13:28;;;;;;;9.73;6.05;;;;;;;-144.19;100.00;76581.19;5076735;28;20053;-86
2021/12/31 03:15:55;;;;;;;8.23;4.85;;;;;;;-144.19;100.00;76563.47;5076075;28;20521;-86
2021/12/31 03:18:22;;;;;;;7.05;4.53;;;;;;;-144.19;100.00;76571.34;5075985;28;20048;-89
2021/12/31 03:21:00;;;;;;;14.38;5.53;;;;;;;-144.19;100.00;76571.34;5075747;28;20048;-86
2021/12/31 03:23:27;;;;;;;;;;;;;;;-144.19;100.00;76559.53;5074667;28;20043;-86
2021/12/31 03:25:53;;;;;;;8.35;4.75;;;;;;;-144.19;100.00;76571.34;5075779;28;19924;-86
2021/12/31 03:28:21;;;;;;;8.03;4.70;;;;;;;-144.19;100.00;76555.59;5094096;28;20058;-86
2021/12/31 03:30:47;;;;;;;;;;;;;;;-144.19;100.00;76571.34;5076190;28;20093;-86
2021/12/31 03:33:15;;;;;;;6.38;4.13;;;;;;;-144.19;100.00;76575.28;5093221;28;19919;-86
2021/12/31 03:35:42;;;;;;;10.10;4.63;;;;;;;-144.19;100.00;76579.22;5104747;28;20043;-85
2021/12/31 03:38:09;;;;;;;8.68;4.43;;;;;;;-144.19;100.00;76573.31;5095926;28;20048;-84
2021/12/31 03:40:36;;;;;;;8.35;4.90;;;;;;;-144.19;100.00;76575.28;5114940;28;20052;-87
2021/12/31 03:43:02;;;;;;;9.20;5.10;;;;;;;-144.19;100.00;76575.28;5078195;28;20044;-86
2021/12/31 03:45:28;;;;;;;10.15;5.32;;;;;;;-144.19;100.00;76591.03;5093876;28;20044;-87
2021/12/31 03:47:55;;;;;;;8.07;4.82;;;;;;;-144.19;100.00;76594.97;5076253;28;20058;-85
2021/12/31 03:50:21;;;;;;;9.77;4.93;;;;;;;-144.19;100.00;76587.09;5075776;28;20059;-86
2021/12/31 03:52:48;;;;;;;11.50;4.97;;;;;;;-144.19;100.00;76587.09;5075917;28;20059;-85
2021/12/31 03:55:14;;;;;;;8.20;4.43;;;;;;;-144.19;100.00;76585.13;5093678;28;20044;-86
2021/12/31 03:57:41;;;;;;;10.55;4.80;;;;;;;-144.19;100.00;76594.97;5093711;28;20074;-87
2021/12/31 04:00:10;;;;;;;11.90;4.93;;;;;;;-144.19;100.00;76602.84;5076748;28;20048;-84
2021/12/31 04:02:36;;;;;;;10.63;5.60;;;;;;;-144.19;100.00;76587.09;5074820;28;20052;-85
2021/12/31 04:05:03;;;;;;;9.35;6.10;;;;;;;-144.19;100.00;76606.78;5093797;28;20104;-85
2021/12/31 04:07:30;;;;;;;8.02;5.63;;;;;;;-144.19;100.00;76606.78;5075330;28;20052;-85
2021/12/31 04:09:56;;;;;;;8.88;5.22;;;;;;;-144.19;100.00;76614.66;5093728;28;20048;-86
2021/12/31 04:12:22;;;;;;;5.90;4.72;;;;;;;-144.19;100.00;76630.41;5074973;28;20512;-86
2021/12/31 04:14:49;;;;;;;10.00;6.32;;;;;;;-144.19;100.00;76642.22;5093101;28;20050;-85
2021/12/31 04:17:15;;;;;;;8.93;5.78;;;;;;;-144.19;100.00;76628.44;5092954;28;20052;-87
2021/12/31 04:19:42;;;;;;;9.73;4.78;;;;;;;-144.19;100.00;76630.41;5092998;28;20095;-83
2021/12/31 04:22:12;;;;;;;7.28;4.63;;;;;;;-144.19;100.00;76626.47;5092793;28;20429;-85
2021/12/31 04:27:12;;;;;;;7.90;5.10;;;;;;;-144.19;100.00;76630.41;5093068;28;20048;-86
2021/12/31 04:29:39;;;;;;;8.45;5.13;;;;;;;-144.19;100.00;76624.50;5092678;28;20142;-85
2021/12/31 04:32:06;;;;;;;;;;;;;;;-144.19;100.00;76616.63;5074068;28;20422;-88
2021/12/31 04:34:33;;;;;;;8.23;4.75;;;;;;;-144.19;100.00;76622.53;5093040;28;19934;-83
2021/12/31 04:36:59;;;;;;;5.30;4.30;;;;;;;-144.19;100.00;76610.72;5095155;28;20520;-85
2021/12/31 04:39:25;;;;;;;9.45;4.18;;;;;;;-144.19;100.00;76602.84;5091116;28;20048;-86
2021/12/31 04:41:52;;;;;;;11.60;4.63;;;;;;;-144.19;100.00;76598.91;5092420;28;20055;-85
2021/12/31 04:44:18;;;;;;;7.65;4.05;;;;;;;-144.19;100.00;76596.94;5077401;28;20051;-84
2021/12/31 04:46:44;;;;;;;6.60;4.32;;;;;;;-144.19;100.00;76581.19;5084909;28;20058;-85
2021/12/31 04:49:11;;;;;;;8.15;4.53;;;;;;;-144.19;100.00;76587.09;5083612;28;20055;-85
2021/12/31 04:51:40;;;;;;;8.30;3.50;;;;;;;-144.19;100.00;76571.34;5095137;28;20048;-87
2021/12/31 04:54:14;;;;;;;5.75;3.38;;;;;;;-144.19;100.00;76573.31;5083973;28;20433;-86
2021/12/31 04:56:42;;;;;;;5.75;3.53;;;;;;;-144.19;100.00;76571.34;5083560;28;20046;-85
2021/12/31 04:59:10;;;;;;;7.40;3.53;;;;;;;-144.19;100.00;76559.53;5103321;28;20043;-83
2021/12/31 05:01:36;;;;;;;;;;;;;;;-144.19;100.00;76551.66;5080564;28;20050;-84
2021/12/31 05:04:04;;;;;;;4.72;2.80;;;;;;;-144.19;100.00;76563.47;5102436;28;19973;-85
2021/12/31 05:06:30;;;;;;;;;;;;;;;-144.19;100.00;76551.66;5085575;28;20043;-85
2021/12/31 05:08:56;;;;;;;6.50;2.80;;;;;;;-144.19;100.00;76549.69;5092659;28;19926;-85
2021/12/31 05:11:23;;;;;;;5.50;2.83;;;;;;;-144.19;100.00;76535.91;5112610;28;20055;-86
2021/12/31 05:13:49;;;;;;;11.60;2.97;;;;;;;-144.19;100.00;76520.16;5105055;28;20044;-85
2021/12/31 05:16:15;;;;;;;8.00;2.60;;;;;;;-144.19;100.00;76512.28;5073585;28;20414;-86
2021/12/31 05:18:42;;;;;;;8.47;3.00;;;;;;;-144.19;100.00;76520.16;5092026;28;20054;-87
2021/12/31 05:21:08;;;;;;;5.32;2.17;;;;;;;-144.19;100.00;76520.16;5092382;28;20282;-88
2021/12/31 05:23:35;;;;;;;3.97;2.30;;;;;;;-144.19;100.00;76512.28;5073444;28;20059;-88
2021/12/31 05:26:01;;;;;;;5.00;2.03;;;;;;;-144.19;100.00;76516.22;5070171;28;20044;-87
2021/12/31 05:28:27;;;;;;;6.50;2.22;;;;;;;-144.19;100.00;76514.25;5054053;28;20045;-84
2021/12/31 05:30:54;;;;;;;6.63;2.00;;;;;;;-144.19;100.00;76494.59;5079204;28;20063;-86
2021/12/31 05:33:20;;;;;;;4.35;1.90;;;;;;;-144.19;100.00;76492.63;5091997;28;20048;-85
2021/12/31 05:35:46;;;;;;;3.63;1.83;;;;;;;-144.19;100.00;76502.44;5085599;28;20050;-87
2021/12/31 05:38:13;;;;;;;7.28;1.98;;;;;;;-144.19;100.00;76488.69;5112691;28;20047;-87
2021/12/31 05:40:39;;;;;;;4.50;1.80;;;;;;;-144.19;100.00;76492.63;5094591;28;20063;-88
2021/12/31 05:43:06;;;;;;;3.03;1.42;;;;;;;-144.19;100.00;76496.53;5093322;28;20526;-84
2021/12/31 05:45:32;;;;;;;4.28;1.80;;;;;;;-144.19;100.00;76492.63;5074501;28;20112;-84
2021/12/31 05:48:18;;;;;;;6.28;1.92;;;;;;;-144.19;100.00;76484.75;5076763;28;20059;-85
2021/12/31 05:50:45;;;;;;;7.38;1.90;;;;;;;-144.19;100.00;76488.69;5074196;28;20054;-85
2021/12/31 05:53:11;;;;;;;3.75;2.08;;;;;;;-144.19;100.00;76498.50;5092209;28;20180;-86
2021/12/31 05:55:38;;;;;;;4.25;1.70;;;;;;;-144.19;100.00;76480.81;5071004;28;20911;-86
2021/12/31 05:58:05;;;;;;;3.87;1.87;;;;;;;-144.19;100.00;76482.78;5076779;28;20052;-88
2021/12/31 06:00:31;;;;;;;;;;;;;;;-144.19;100.00;76486.72;5094231;28;20075;-88
2021/12/31 06:02:58;;;;;;;5.78;2.17;;;;;;;-144.19;100.00;76480.81;5091827;28;19959;-84
2021/12/31 06:05:27;;;;;;;6.03;2.03;;;;;;;-144.19;100.00;76486.72;5081114;28;20059;-82
2021/12/31 06:07:56;;;;;;;7.88;1.90;;;;;;;-144.19;100.00;76467.03;5073703;28;20054;-85
2021/12/31 06:10:26;;;;;;;2.92;1.90;;;;;;;-144.19;100.00;76472.94;5073496;28;20052;-86
2021/12/31 06:12:57;;;;;;;6.68;2.53;;;;;;;-144.19;100.00;76472.94;5073172;28;20048;-83
2021/12/31 06:15:25;;;;;;;6.57;1.90;;;;;;;-144.19;100.00;76472.94;5091417;28;20498;-88
2021/12/31 06:17:52;;;;;;;3.28;1.85;;;;;;;-144.19;100.00;76474.91;5091491;28;20134;-86
2021/12/31 06:20:18;;;;;;;5.45;1.60;;;;;;;-144.19;100.00;76472.94;5091791;28;20137;-88
2021/12/31 06:22:45;;;;;;;6.63;2.13;;;;;;;-144.19;100.00;76480.81;5077535;28;20052;-82
2021/12/31 06:25:12;;;;;;;5.38;1.83;;;;;;;-144.19;100.00;76469.00;5073665;28;20051;-87
2021/12/31 06:27:38;;;;;;;6.60;1.95;;;;;;;-144.19;100.00;76478.84;5072873;28;20048;-86
2021/12/31 06:30:05;;;;;;;4.00;2.20;;;;;;;-144.19;100.00;76472.94;5073508;28;20050;-86
2021/12/31 06:32:32;;;;;;;3.67;1.75;;;;;;;-144.19;100.00;76472.94;5072177;28;20433;-86
2021/12/31 06:34:58;;;;;;;5.88;2.20;;;;;;;-144.19;100.00;76476.88;5077933;28;20060;-84
2021/12/31 06:37:24;;;;;;;6.70;1.95;;;;;;;-144.19;100.00;76472.94;5092942;28;20043;-86
2021/12/31 06:39:53;;;;;;;4.67;2.07;;;;;;;-144.19;100.00;76476.88;5077689;28;20052;-86
2021/12/31 06:42:19;;;;;;;5.85;2.08;;;;;;;-144.19;100.00;76470.97;5072628;28;20417;-86
2021/12/31 06:44:45;;;;;;;6.78;2.42;;;;;;;-144.19;100.00;76469.00;5073690;28;20058;-86
2021/12/31 06:47:12;;;;;;;6.73;1.80;;;;;;;-144.19;100.00;76465.06;5090916;28;20498;-85
2021/12/31 06:49:38;;;;;;;4.30;1.95;;;;;;;-144.19;100.00;76463.09;5091407;28;20055;-85
2021/12/31 06:52:05;;;;;;;4.93;1.97;;;;;;;-144.19;100.00;76480.81;5085664;28;20052;-86
2021/12/31 06:54:31;;;;;;;5.83;2.70;;;;;;;-144.19;100.00;76476.88;5090435;28;20056;-86
2021/12/31 06:56:58;;;;;;;2.93;1.87;;;;;;;-144.19;100.00;76472.94;5070700;28;20048;-86
2021/12/31 06:59:24;;;;;;;3.83;1.65;;;;;;;-144.19;100.00;76472.94;5077290;28;20084;-85
2021/12/31 07:01:50;;;;;;;7.10;2.40;;;;;;;-144.19;100.00;76472.94;5076282;28;20052;-86
2021/12/31 07:04:17;;;;;;;3.00;1.83;;;;;;;-144.19;100.00;76480.81;5094115;28;20048;-85
2021/12/31 07:06:44;;;;;;;5.07;2.25;;;;;;;-144.19;100.00;76472.94;5075920;28;20052;-86
2021/12/31 07:09:11;;;;;;;6.10;2.10;;;;;;;-144.19;100.00;76465.06;5095613;28;20050;-87
2021/12/31 07:11:38;;;;;;;5.07;2.05;;;;;;;-144.19;100.00;76459.16;5077074;28;20082;-84
2021/12/31 07:14:05;;;;;;;3.35;1.88;;;;;;;-144.19;100.00;76469.00;5076728;28;20048;-85
2021/12/31 07:16:31;;;;;;;5.82;2.20;;;;;;;-144.19;100.00;76455.22;5084948;28;20474;-87
2021/12/31 07:18:58;;;;;;;3.45;1.75;;;;;;;-144.19;100.00;76465.06;5084332;28;20048;-86
2021/12/31 07:21:25;;;;;;;3.78;2.05;;;;;;;-144.19;100.00;76467.03;5079564;28;20044;-83
2021/12/31 07:23:51;;;;;;;7.13;2.57;;;;;;;-144.19;100.00;76472.94;5100830;28;20043;-83
2021/12/31 07:26:18;;;;;;;4.37;1.87;;;;;;;-144.19;100.00;76476.88;5087020;28;20302;-84
2021/12/31 07:28:44;;;;;;;4.47;2.13;;;;;;;-144.19;100.00;76496.53;5082529;28;20288;-88
2021/12/31 07:31:14;;;;;;;4.90;2.20;;;;;;;-144.19;100.00;76498.50;5102219;28;20336;-84
2021/12/31 07:33:41;;;;;;;5.03;2.38;;;;;;;-144.19;100.00;76480.81;5100047;28;20274;-87
2021/12/31 07:36:08;;;;;;;4.20;2.00;;;;;;;-144.19;100.00;76496.53;5104558;28;20044;-87
2021/12/31 07:38:38;;;;;;;5.70;2.28;;;;;;;-144.19;100.00;76496.53;5084986;28;20052;-86
2021/12/31 07:41:05;;;;;;;5.15;2.22;;;;;;;-144.19;100.00;76496.53;5084675;28;20048;-87
2021/12/31 07:43:32;;;;;;;5.43;2.33;;;;;;;-144.19;100.00;76492.63;5103134;28;20489;-82
2021/12/31 07:45:58;;;;;;;4.03;2.00;;;;;;;-144.19;100.00;76488.69;5087112;28;20050;-88
2021/12/31 07:48:25;;;;;;;3.33;2.00;;;;;;;-144.19;100.00;76486.72;5084458;28;20059;-88
2021/12/31 07:50:53;;;;;;;4.43;1.98;;;;;;;-144.19;100.00;76496.53;5104862;28;20059;-82
2021/12/31 07:53:19;;;;;;;4.25;2.65;;;;;;;-144.19;100.00;76480.81;5102755;28;20044;-85
2021/12/31 07:55:46;;;;;;;5.00;2.72;;;;;;;-144.19;100.00;76484.75;5088806;28;20424;-85
2021/12/31 07:58:12;;;;;;;6.27;2.30;;;;;;;-144.19;100.00;76490.66;5088955;28;20043;-86
2021/12/31 08:00:39;;;;;;;7.93;2.35;;;;;;;-144.19;100.00;76490.66;5105904;28;20490;-87
2021/12/31 08:03:05;;;;;;;4.43;2.67;;;;;;;-144.19;100.00;76484.75;5088237;28;20055;-87
2021/12/31 08:05:32;;;;;;;4.60;2.00;;;;;;;-144.19;100.00;76504.41;5090095;28;20285;-84
2021/12/31 08:08:00;;;;;;;4.80;2.47;;;;;;;-144.19;100.00;76506.38;5105037;28;20050;-86
2021/12/31 08:10:27;;;;;;;4.72;2.50;;;;;;;-144.19;100.00;76500.47;5087070;28;20617;-88
2021/12/31 08:13:14;;;;;;;2.67;2.00;;;;;;;-144.19;100.00;76500.47;5105040;28;20048;-88
2021/12/31 08:15:40;;;;;;;;;;;;;;;-144.19;100.00;76500.47;5098732;28;20425;-88
2021/12/31 08:18:07;;;;;;;4.95;1.95;;;;;;;-144.19;100.00;76498.50;5081588;28;19950;-87
2021/12/31 08:20:35;;;;;;;4.75;2.28;;;;;;;-144.19;100.00;76484.75;5076748;28;20062;-88
2021/12/31 08:23:06;;;;;;;2.05;1.80;;;;;;;-144.19;100.00;76500.47;5094491;28;20040;-87
2021/12/31 08:25:33;;;;;;;4.18;1.95;;;;;;;-144.19;100.00;76488.69;5092956;28;20051;-86
2021/12/31 08:27:59;;;;;;;3.50;1.88;;;;;;;-144.19;100.00;76484.75;5098356;28;20044;-87
2021/12/31 08:30:26;;;;;;;5.90;2.30;;;;;;;-144.19;100.00;76496.53;5087632;28;20051;-87
2021/12/31 08:32:52;;;;;;;3.58;2.00;;;;;;;-144.19;100.00;76494.59;5094301;28;20055;-87
2021/12/31 08:35:18;;;;;;;5.97;2.20;;;;;;;-144.19;100.00;76496.53;5076731;28;20093;-85
2021/12/31 08:37:45;;;;;;;4.87;2.57;;;;;;;-144.19;100.00;76512.28;5077010;28;20051;-83
2021/12/31 08:40:12;;;;;;;4.63;2.20;;;;;;;-144.19;100.00;76500.47;5078692;28;20818;-85
2021/12/31 08:42:40;;;;;;;3.92;1.92;;;;;;;-144.19;100.00;76496.53;5083934;28;20117;-88
2021/12/31 08:45:07;;;;;;;5.68;2.33;;;;;;;-144.19;100.00;76512.28;5083179;28;20044;-83
2021/12/31 08:47:34;;;;;;;3.20;2.22;;;;;;;-144.19;100.00;76512.28;5101871;28;20052;-87
2021/12/31 08:50:00;;;;;;;6.10;2.50;;;;;;;-144.19;100.00;76518.19;5084234;28;20399;-84
2021/12/31 08:52:27;;;;;;;7.03;2.28;;;;;;;-144.19;100.00;76526.06;5085543;28;20044;-84
2021/12/31 08:54:53;;;;;;;4.63;2.35;;;;;;;-144.19;100.00;76516.22;5099220;28;20059;-83
2021/12/31 08:57:20;;;;;;;4.28;2.28;;;;;;;-144.19;100.00;76522.13;5085098;28;20054;-84
2021/12/31 08:59:46;;;;;;;6.57;3.10;;;;;;;-144.19;100.00;76516.22;5103203;28;20048;-87
2021/12/31 09:02:15;;;;;;;3.85;1.98;;;;;;;-144.19;100.00;76522.13;5087078;28;20044;-87
2021/12/31 09:04:42;;;;;;;5.70;2.55;;;;;;;-144.19;100.00;76516.22;5087953;28;20048;-84
2021/12/31 09:07:08;;;;;;;8.50;2.53;;;;;;;-144.19;100.00;76518.19;5094057;28;20099;-85
2021/12/31 09:09:35;;;;;;;5.68;2.13;;;;;;;-144.19;100.00;76516.22;5091870;28;20055;-86
2021/12/31 09:12:01;;;;;;;3.67;2.05;;;;;;;-144.19;100.00;76524.09;5085817;28;20048;-86
2021/12/31 09:14:27;;;;;;;5.30;2.20;;;;;;;-144.19;100.00;76506.38;5076049;28;20048;-88
2021/12/31 09:16:54;;;;;;;5.38;2.20;;;;;;;-144.19;100.00;76508.34;5083309;28;20110;-84
2021/12/31 09:19:20;;;;;;;5.65;2.22;;;;;;;-144.19;100.00;76516.22;5082891;28;20046;-85
2021/12/31 09:21:47;;;;;;;3.57;2.00;;;;;;;-144.19;100.00;76500.47;5082491;28;20072;-86
2021/12/31 09:24:13;;;;;;;4.43;2.00;;;;;;;-144.19;100.00;76488.69;5083731;28;20062;-88
2021/12/31 09:26:40;;;;;;;2.83;2.13;;;;;;;-144.19;100.00;76496.53;5081875;28;20617;-87
2021/12/31 09:29:06;;;;;;;8.00;2.67;;;;;;;-144.19;100.00;76494.59;5099377;28;20054;-85
2021/12/31 09:31:33;;;;;;;4.15;1.92;;;;;;;-144.19;100.00;76510.31;5101906;28;20048;-85
2021/12/31 09:33:59;;;;;;;3.43;2.00;;;;;;;-144.19;100.00;76512.28;5083244;28;20120;-86
2021/12/31 09:36:26;;;;;;;2.55;1.88;;;;;;;-144.19;100.00;76508.34;5087799;28;20070;-85
2021/12/31 09:38:52;;;;;;;4.47;2.27;;;;;;;-144.19;100.00;76520.16;5081824;28;20052;-85
2021/12/31 09:41:19;;;;;;;5.65;2.17;;;;;;;-144.19;100.00;76530.00;5102435;28;20054;-85
2021/12/31 09:43:52;;;;;;;5.22;2.28;;;;;;;-144.19;100.00;76524.09;5082818;28;20054;-84
2021/12/31 09:46:19;;;;;;;4.25;2.10;;;;;;;-144.19;100.00;76535.91;5099152;28;20054;-85
2021/12/31 09:48:46;;;;;;;6.20;2.03;;;;;;;-144.19;100.00;76539.84;5102585;28;20048;-84
2021/12/31 09:51:13;;;;;;;2.92;2.08;;;;;;;-144.19;100.00;76533.94;5099691;28;20052;-87
2021/12/31 09:53:40;;;;;;;5.47;1.90;;;;;;;-144.19;100.00;76541.81;5097489;28;20040;-89
2021/12/31 09:56:07;;;;;;;5.18;2.60;;;;;;;-144.19;100.00;76543.78;5083323;28;20420;-87
2021/12/31 09:58:35;;;;;;;4.80;2.17;;;;;;;-144.19;100.00;76516.22;5102652;28;20949;-85
2021/12/31 10:01:03;;;;;;;5.90;2.47;;;;;;;-144.19;100.00;76518.19;5080013;28;20589;-87
2021/12/31 10:03:32;;;;;;;3.40;1.98;;;;;;;-144.19;100.00;76531.97;5081754;28;20047;-85
2021/12/31 10:06:00;;;;;;;3.08;2.17;;;;;;;-144.19;100.00;76524.09;5085133;28;20044;-88
2021/12/31 10:08:38;;;;;;;3.70;2.30;;;;;;;-144.19;100.00;76535.91;5083048;28;20043;-83
2021/12/31 10:11:09;;;;;;;3.58;1.90;;;;;;;-144.19;100.00;76531.97;5100625;28;20044;-86
2021/12/31 10:13:40;;;;;;;2.75;2.08;;;;;;;-144.19;100.00;76533.94;5085137;28;20039;-82
2021/12/31 10:16:37;;;;;;;4.53;2.17;;;;;;;-144.19;100.00;76520.16;5104743;28;20048;-88
2021/12/31 10:19:11;;;;;;;7.07;2.10;;;;;;;-144.19;100.00;76524.09;5073905;28;20039;-84
2021/12/31 10:21:41;;;;;;;3.53;1.80;;;;;;;-144.19;100.00;76535.91;5089212;28;20051;-86
2021/12/31 10:24:36;;;;;;;5.90;2.30;;;;;;;-144.19;100.00;76530.00;5079780;28;20101;-84
2021/12/31 10:27:08;;;;;;;4.18;2.15;;;;;;;-144.19;100.00;76512.28;5102158;28;20039;-86
2021/12/31 10:29:49;;;;;;;5.55;2.35;;;;;;;-144.19;100.00;76528.03;5082003;28;20054;-87
2021/12/31 10:32:16;;;;;;;6.55;2.78;;;;;;;-144.19;100.00;76547.72;5081888;28;20048;-85
2021/12/31 10:34:42;;;;;;;3.45;2.05;;;;;;;-144.19;100.00;76543.78;5095696;28;20047;-86
2021/12/31 10:37:17;;;;;;;5.60;2.47;;;;;;;-144.19;100.00;76547.72;5088480;28;20050;-87
2021/12/31 10:39:44;;;;;;;5.03;2.05;;;;;;;-144.19;100.00;76543.78;5103019;28;20072;-87
2021/12/31 10:42:14;;;;;;;4.97;2.20;;;;;;;-144.19;100.00;76557.56;5106641;28;20460;-84
2021/12/31 10:44:49;;;;;;;3.15;1.85;;;;;;;-144.19;100.00;76543.78;5085000;28;20535;-85
2021/12/31 10:47:21;;;;;;;5.50;2.40;;;;;;;-144.19;100.00;76539.84;5103470;28;20089;-88
2021/12/31 10:50:00;;;;;;;5.95;2.30;;;;;;;-144.19;100.00;76551.66;5085729;28;20055;-86
2021/12/31 10:52:38;;;;;;;5.10;2.05;;;;;;;-144.19;100.00;76549.69;5085753;28;20048;-83
2021/12/31 10:55:17;;;;;;;4.45;2.47;;;;;;;-144.19;100.00;76535.91;5100561;28;20054;-82
2021/12/31 10:57:47;;;;;;;6.30;2.20;;;;;;;-144.19;100.00;76528.03;5084824;28;20067;-85
2021/12/31 11:00:15;;;;;;;5.63;2.75;;;;;;;-144.19;100.00;76524.09;5090903;28;20048;-86
2021/12/31 11:02:42;;;;;;;4.30;2.03;;;;;;;-144.19;100.00;76524.09;5114534;28;20055;-86
2021/12/31 11:05:11;;;;;;;6.70;2.20;;;;;;;-144.19;100.00;76526.06;5096236;28;20454;-83
2021/12/31 11:07:39;;;;;;;4.20;2.10;;;;;;;-144.19;100.00;76528.03;5095873;28;20078;-82
2021/12/31 11:10:28;;;;;;;5.13;1.95;;;;;;;-144.19;100.00;76528.03;5091465;28;20044;-86
2021/12/31 11:12:55;;;;;;;3.63;1.95;;;;;;;-144.19;100.00;76520.16;5102332;28;20611;-85
2021/12/31 11:15:21;;;;;;;6.22;2.15;;;;;;;-144.19;100.00;76522.13;5086687;28;20044;-85
2021/12/31 11:17:52;;;;;;;4.60;2.20;;;;;;;-144.19;100.00;76528.03;5082709;28;20044;-85